sensor_id;sensor_type;location;lat;lon;timestamp;temperature;humidity
9984;DHT22;16737;50.932;6.780;2022-12-10T00:01:47;3.80;96.50
9984;DHT22;16737;50.932;6.780;2022-12-10T00:04:16;3.70;96.40
9984;DHT22;16737;50.932;6.780;2022-12-10T00:06:43;3.70;96.40
9984;DHT22;16737;50.932;6.780;2022-12-10T00:09:12;3.60;96.40
9984;DHT22;16737;50.932;6.780;2022-12-10T00:11:41;3.60;96.40
9984;DHT22;16737;50.932;6.780;2022-12-10T00:14:09;3.60;96.40
9984;DHT22;16737;50.932;6.780;2022-12-10T00:16:37;3.50;96.40
9984;DHT22;16737;50.932;6.780;2022-12-10T00:19:06;3.50;96.40
9984;DHT22;16737;50.932;6.780;2022-12-10T00:21:35;3.50;96.50
9984;DHT22;16737;50.932;6.780;2022-12-10T00:24:03;3.40;96.40
9984;DHT22;16737;50.932;6.780;2022-12-10T00:26:32;3.40;96.40
9984;DHT22;16737;50.932;6.780;2022-12-10T00:29:05;3.40;96.40
9984;DHT22;16737;50.932;6.780;2022-12-10T00:31:35;3.40;96.40
9984;DHT22;16737;50.932;6.780;2022-12-10T00:34:06;3.30;96.40
9984;DHT22;16737;50.932;6.780;2022-12-10T00:36:36;3.30;96.50
9984;DHT22;16737;50.932;6.780;2022-12-10T00:39:04;3.30;96.50
9984;DHT22;16737;50.932;6.780;2022-12-10T00:41:31;3.20;96.40
9984;DHT22;16737;50.932;6.780;2022-12-10T00:43:58;3.20;96.40
9984;DHT22;16737;50.932;6.780;2022-12-10T00:46:26;3.20;96.40
9984;DHT22;16737;50.932;6.780;2022-12-10T00:48:53;3.10;96.40
9984;DHT22;16737;50.932;6.780;2022-12-10T00:51:23;3.10;96.40
9984;DHT22;16737;50.932;6.780;2022-12-10T00:53:52;3.10;96.40
9984;DHT22;16737;50.932;6.780;2022-12-10T00:56:22;3.00;96.40
9984;DHT22;16737;50.932;6.780;2022-12-10T00:58:50;3.10;96.40
9984;DHT22;16737;50.932;6.780;2022-12-10T01:01:21;3.00;96.40
9984;DHT22;16737;50.932;6.780;2022-12-10T01:03:50;3.00;96.40
9984;DHT22;16737;50.932;6.780;2022-12-10T01:06:22;3.00;96.50
9984;DHT22;16737;50.932;6.780;2022-12-10T01:08:53;3.00;96.50
9984;DHT22;16737;50.932;6.780;2022-12-10T01:11:25;2.90;96.50
9984;DHT22;16737;50.932;6.780;2022-12-10T01:13:55;2.90;96.50
9984;DHT22;16737;50.932;6.780;2022-12-10T01:16:23;2.90;96.50
9984;DHT22;16737;50.932;6.780;2022-12-10T01:18:53;2.90;96.50
9984;DHT22;16737;50.932;6.780;2022-12-10T01:21:22;2.80;96.40
9984;DHT22;16737;50.932;6.780;2022-12-10T01:23:51;2.80;96.50
9984;DHT22;16737;50.932;6.780;2022-12-10T01:26:22;2.80;96.50
9984;DHT22;16737;50.932;6.780;2022-12-10T01:28:52;2.80;96.50
9984;DHT22;16737;50.932;6.780;2022-12-10T01:31:22;2.80;96.50
9984;DHT22;16737;50.932;6.780;2022-12-10T01:33:50;2.80;96.50
9984;DHT22;16737;50.932;6.780;2022-12-10T01:36:20;2.80;96.60
9984;DHT22;16737;50.932;6.780;2022-12-10T01:38:50;2.70;96.50
9984;DHT22;16737;50.932;6.780;2022-12-10T01:41:19;2.70;96.50
9984;DHT22;16737;50.932;6.780;2022-12-10T01:43:54;2.70;96.50
9984;DHT22;16737;50.932;6.780;2022-12-10T01:46:24;2.70;96.50
9984;DHT22;16737;50.932;6.780;2022-12-10T01:48:53;2.70;96.50
9984;DHT22;16737;50.932;6.780;2022-12-10T01:51:22;2.70;96.50
9984;DHT22;16737;50.932;6.780;2022-12-10T01:53:51;2.70;96.50
9984;DHT22;16737;50.932;6.780;2022-12-10T01:56:19;2.60;96.50
9984;DHT22;16737;50.932;6.780;2022-12-10T01:58:48;2.60;96.50
9984;DHT22;16737;50.932;6.780;2022-12-10T02:01:26;2.60;96.50
9984;DHT22;16737;50.932;6.780;2022-12-10T02:04:09;2.60;96.50
9984;DHT22;16737;50.932;6.780;2022-12-10T02:06:58;2.60;96.50
9984;DHT22;16737;50.932;6.780;2022-12-10T02:09:32;2.60;96.50
9984;DHT22;16737;50.932;6.780;2022-12-10T02:12:10;2.60;96.50
9984;DHT22;16737;50.932;6.780;2022-12-10T02:14:49;2.50;96.40
9984;DHT22;16737;50.932;6.780;2022-12-10T02:17:24;2.50;96.40
9984;DHT22;16737;50.932;6.780;2022-12-10T02:20:02;2.50;96.40
9984;DHT22;16737;50.932;6.780;2022-12-10T02:22:38;2.50;96.50
9984;DHT22;16737;50.932;6.780;2022-12-10T02:25:09;2.50;96.50
9984;DHT22;16737;50.932;6.780;2022-12-10T02:27:46;2.50;96.50
9984;DHT22;16737;50.932;6.780;2022-12-10T02:30:20;2.50;96.60
9984;DHT22;16737;50.932;6.780;2022-12-10T02:32:48;2.50;96.60
9984;DHT22;16737;50.932;6.780;2022-12-10T02:35:19;2.40;96.60
9984;DHT22;16737;50.932;6.780;2022-12-10T02:37:51;2.50;96.70
9984;DHT22;16737;50.932;6.780;2022-12-10T02:40:24;2.50;96.70
9984;DHT22;16737;50.932;6.780;2022-12-10T02:42:56;2.50;96.80
9984;DHT22;16737;50.932;6.780;2022-12-10T02:45:27;2.50;96.80
9984;DHT22;16737;50.932;6.780;2022-12-10T02:47:57;2.50;96.80
9984;DHT22;16737;50.932;6.780;2022-12-10T02:50:25;2.50;96.90
9984;DHT22;16737;50.932;6.780;2022-12-10T02:52:53;2.50;96.90
9984;DHT22;16737;50.932;6.780;2022-12-10T02:55:20;2.60;96.90
9984;DHT22;16737;50.932;6.780;2022-12-10T02:58:00;2.50;96.90
9984;DHT22;16737;50.932;6.780;2022-12-10T03:00:39;2.60;97.00
9984;DHT22;16737;50.932;6.780;2022-12-10T03:03:28;2.60;97.00
9984;DHT22;16737;50.932;6.780;2022-12-10T03:06:09;2.60;97.00
9984;DHT22;16737;50.932;6.780;2022-12-10T03:08:46;2.60;97.00
9984;DHT22;16737;50.932;6.780;2022-12-10T03:11:18;2.60;97.10
9984;DHT22;16737;50.932;6.780;2022-12-10T03:13:53;2.70;97.10
9984;DHT22;16737;50.932;6.780;2022-12-10T03:16:28;2.70;97.20
9984;DHT22;16737;50.932;6.780;2022-12-10T03:19:03;2.70;97.20
9984;DHT22;16737;50.932;6.780;2022-12-10T03:21:33;2.70;97.20
9984;DHT22;16737;50.932;6.780;2022-12-10T03:24:04;2.70;97.30
9984;DHT22;16737;50.932;6.780;2022-12-10T03:26:32;2.80;97.30
9984;DHT22;16737;50.932;6.780;2022-12-10T03:29:10;2.80;97.30
9984;DHT22;16737;50.932;6.780;2022-12-10T03:31:42;2.80;97.40
9984;DHT22;16737;50.932;6.780;2022-12-10T03:34:10;2.80;97.40
9984;DHT22;16737;50.932;6.780;2022-12-10T03:36:38;2.90;97.50
9984;DHT22;16737;50.932;6.780;2022-12-10T03:39:06;2.90;97.50
9984;DHT22;16737;50.932;6.780;2022-12-10T03:41:34;2.90;97.50
9984;DHT22;16737;50.932;6.780;2022-12-10T03:44:01;3.00;97.60
9984;DHT22;16737;50.932;6.780;2022-12-10T03:46:29;3.00;97.60
9984;DHT22;16737;50.932;6.780;2022-12-10T03:49:00;3.00;97.90
9984;DHT22;16737;50.932;6.780;2022-12-10T03:51:27;3.10;97.60
9984;DHT22;16737;50.932;6.780;2022-12-10T03:53:54;3.10;97.60
9984;DHT22;16737;50.932;6.780;2022-12-10T03:56:22;3.10;97.60
9984;DHT22;16737;50.932;6.780;2022-12-10T03:58:49;3.10;97.60
9984;DHT22;16737;50.932;6.780;2022-12-10T04:01:16;3.20;97.60
9984;DHT22;16737;50.932;6.780;2022-12-10T04:03:43;3.20;97.60
9984;DHT22;16737;50.932;6.780;2022-12-10T04:06:14;3.20;97.60
9984;DHT22;16737;50.932;6.780;2022-12-10T04:08:42;3.20;97.60
9984;DHT22;16737;50.932;6.780;2022-12-10T04:11:10;3.20;97.60
9984;DHT22;16737;50.932;6.780;2022-12-10T04:13:38;3.30;97.60
9984;DHT22;16737;50.932;6.780;2022-12-10T04:16:23;3.30;97.60
9984;DHT22;16737;50.932;6.780;2022-12-10T04:18:55;3.30;97.60
9984;DHT22;16737;50.932;6.780;2022-12-10T04:21:25;3.30;97.50
9984;DHT22;16737;50.932;6.780;2022-12-10T04:24:12;3.30;97.60
9984;DHT22;16737;50.932;6.780;2022-12-10T04:27:01;3.30;97.50
9984;DHT22;16737;50.932;6.780;2022-12-10T04:29:31;3.30;97.50
9984;DHT22;16737;50.932;6.780;2022-12-10T04:31:58;3.30;97.50
9984;DHT22;16737;50.932;6.780;2022-12-10T04:34:25;3.40;97.90
9984;DHT22;16737;50.932;6.780;2022-12-10T04:36:54;3.40;97.60
9984;DHT22;16737;50.932;6.780;2022-12-10T04:39:21;3.40;97.60
9984;DHT22;16737;50.932;6.780;2022-12-10T04:41:49;3.40;97.60
9984;DHT22;16737;50.932;6.780;2022-12-10T04:44:16;3.40;97.60
9984;DHT22;16737;50.932;6.780;2022-12-10T04:46:44;3.40;97.60
9984;DHT22;16737;50.932;6.780;2022-12-10T04:49:11;3.40;97.60
9984;DHT22;16737;50.932;6.780;2022-12-10T04:51:39;3.40;97.50
9984;DHT22;16737;50.932;6.780;2022-12-10T04:54:08;3.40;97.50
9984;DHT22;16737;50.932;6.780;2022-12-10T04:56:36;3.40;97.40
9984;DHT22;16737;50.932;6.780;2022-12-10T04:59:04;3.40;97.40
9984;DHT22;16737;50.932;6.780;2022-12-10T05:01:32;3.40;97.40
9984;DHT22;16737;50.932;6.780;2022-12-10T05:04:00;3.40;97.40
9984;DHT22;16737;50.932;6.780;2022-12-10T05:06:29;3.40;97.40
9984;DHT22;16737;50.932;6.780;2022-12-10T05:08:56;3.40;97.40
9984;DHT22;16737;50.932;6.780;2022-12-10T05:11:27;3.40;97.40
9984;DHT22;16737;50.932;6.780;2022-12-10T05:13:56;3.40;97.40
9984;DHT22;16737;50.932;6.780;2022-12-10T05:16:25;3.40;97.40
9984;DHT22;16737;50.932;6.780;2022-12-10T05:18:54;3.40;97.40
9984;DHT22;16737;50.932;6.780;2022-12-10T05:21:23;3.40;97.40
9984;DHT22;16737;50.932;6.780;2022-12-10T05:24:11;3.40;97.40
9984;DHT22;16737;50.932;6.780;2022-12-10T05:26:39;3.40;97.40
9984;DHT22;16737;50.932;6.780;2022-12-10T05:29:06;3.40;97.40
9984;DHT22;16737;50.932;6.780;2022-12-10T05:31:34;3.40;97.40
9984;DHT22;16737;50.932;6.780;2022-12-10T05:34:01;3.50;97.40
9984;DHT22;16737;50.932;6.780;2022-12-10T05:36:30;3.50;97.50
9984;DHT22;16737;50.932;6.780;2022-12-10T05:38:58;3.50;97.50
9984;DHT22;16737;50.932;6.780;2022-12-10T05:41:27;3.50;97.50
9984;DHT22;16737;50.932;6.780;2022-12-10T05:43:57;3.50;97.40
9984;DHT22;16737;50.932;6.780;2022-12-10T05:46:26;3.50;97.40
9984;DHT22;16737;50.932;6.780;2022-12-10T05:48:55;3.50;97.40
9984;DHT22;16737;50.932;6.780;2022-12-10T05:51:23;3.50;97.40
9984;DHT22;16737;50.932;6.780;2022-12-10T05:53:51;3.50;97.40
9984;DHT22;16737;50.932;6.780;2022-12-10T05:56:21;3.50;97.40
9984;DHT22;16737;50.932;6.780;2022-12-10T05:58:51;3.50;97.40
9984;DHT22;16737;50.932;6.780;2022-12-10T06:01:23;3.50;97.40
9984;DHT22;16737;50.932;6.780;2022-12-10T06:03:52;3.50;97.40
9984;DHT22;16737;50.932;6.780;2022-12-10T06:06:21;3.50;97.40
9984;DHT22;16737;50.932;6.780;2022-12-10T06:08:49;3.50;97.40
9984;DHT22;16737;50.932;6.780;2022-12-10T06:11:16;3.50;97.40
9984;DHT22;16737;50.932;6.780;2022-12-10T06:13:43;3.60;97.50
9984;DHT22;16737;50.932;6.780;2022-12-10T06:16:12;3.60;97.50
9984;DHT22;16737;50.932;6.780;2022-12-10T06:18:42;3.60;97.50
9984;DHT22;16737;50.932;6.780;2022-12-10T06:21:11;3.60;97.50
9984;DHT22;16737;50.932;6.780;2022-12-10T06:23:40;3.60;97.50
9984;DHT22;16737;50.932;6.780;2022-12-10T06:26:10;3.60;97.40
9984;DHT22;16737;50.932;6.780;2022-12-10T06:28:40;3.60;97.40
9984;DHT22;16737;50.932;6.780;2022-12-10T06:31:08;3.60;97.40
9984;DHT22;16737;50.932;6.780;2022-12-10T06:33:35;3.60;97.40
9984;DHT22;16737;50.932;6.780;2022-12-10T06:36:05;3.60;97.30
9984;DHT22;16737;50.932;6.780;2022-12-10T06:38:34;3.60;97.30
9984;DHT22;16737;50.932;6.780;2022-12-10T06:41:04;3.60;97.30
9984;DHT22;16737;50.932;6.780;2022-12-10T06:43:33;3.60;97.30
9984;DHT22;16737;50.932;6.780;2022-12-10T06:46:04;3.60;97.20
9984;DHT22;16737;50.932;6.780;2022-12-10T06:48:32;3.50;97.20
9984;DHT22;16737;50.932;6.780;2022-12-10T06:51:00;3.50;97.20
9984;DHT22;16737;50.932;6.780;2022-12-10T06:53:28;3.50;97.20
9984;DHT22;16737;50.932;6.780;2022-12-10T06:55:57;3.50;97.20
9984;DHT22;16737;50.932;6.780;2022-12-10T06:58:26;3.50;97.20
9984;DHT22;16737;50.932;6.780;2022-12-10T07:00:54;3.50;97.20
9984;DHT22;16737;50.932;6.780;2022-12-10T07:03:29;3.40;97.20
9984;DHT22;16737;50.932;6.780;2022-12-10T07:05:57;3.40;97.20
9984;DHT22;16737;50.932;6.780;2022-12-10T07:08:24;3.40;97.20
9984;DHT22;16737;50.932;6.780;2022-12-10T07:10:53;3.40;97.20
9984;DHT22;16737;50.932;6.780;2022-12-10T07:13:20;3.40;97.20
9984;DHT22;16737;50.932;6.780;2022-12-10T07:15:47;3.40;97.20
9984;DHT22;16737;50.932;6.780;2022-12-10T07:18:14;3.40;97.20
9984;DHT22;16737;50.932;6.780;2022-12-10T07:20:41;3.30;97.20
9984;DHT22;16737;50.932;6.780;2022-12-10T07:23:08;3.30;97.20
9984;DHT22;16737;50.932;6.780;2022-12-10T07:25:35;3.30;97.10
9984;DHT22;16737;50.932;6.780;2022-12-10T07:28:03;3.30;97.10
9984;DHT22;16737;50.932;6.780;2022-12-10T07:30:30;3.30;97.10
9984;DHT22;16737;50.932;6.780;2022-12-10T07:32:57;3.20;97.00
9984;DHT22;16737;50.932;6.780;2022-12-10T07:35:24;3.20;97.10
9984;DHT22;16737;50.932;6.780;2022-12-10T07:37:51;3.20;97.10
9984;DHT22;16737;50.932;6.780;2022-12-10T07:40:18;3.20;97.10
9984;DHT22;16737;50.932;6.780;2022-12-10T07:42:45;3.20;97.10
9984;DHT22;16737;50.932;6.780;2022-12-10T07:45:13;3.20;97.10
9984;DHT22;16737;50.932;6.780;2022-12-10T07:47:40;3.10;97.10
9984;DHT22;16737;50.932;6.780;2022-12-10T07:50:07;3.10;97.10
9984;DHT22;16737;50.932;6.780;2022-12-10T07:52:34;3.10;97.10
9984;DHT22;16737;50.932;6.780;2022-12-10T07:55:03;3.10;97.20
9984;DHT22;16737;50.932;6.780;2022-12-10T07:57:31;3.10;97.20
9984;DHT22;16737;50.932;6.780;2022-12-10T07:59:58;3.10;97.30
9984;DHT22;16737;50.932;6.780;2022-12-10T08:02:26;3.10;97.30
9984;DHT22;16737;50.932;6.780;2022-12-10T08:04:53;3.00;97.20
9984;DHT22;16737;50.932;6.780;2022-12-10T08:07:20;3.10;97.30
9984;DHT22;16737;50.932;6.780;2022-12-10T08:09:47;3.10;97.40
9984;DHT22;16737;50.932;6.780;2022-12-10T08:12:14;3.10;97.40
9984;DHT22;16737;50.932;6.780;2022-12-10T08:14:41;3.10;97.40
9984;DHT22;16737;50.932;6.780;2022-12-10T08:17:08;3.10;97.50
9984;DHT22;16737;50.932;6.780;2022-12-10T08:19:36;3.10;97.50
9984;DHT22;16737;50.932;6.780;2022-12-10T08:22:03;3.10;97.50
9984;DHT22;16737;50.932;6.780;2022-12-10T08:24:30;3.10;97.60
9984;DHT22;16737;50.932;6.780;2022-12-10T08:26:57;3.20;97.60
9984;DHT22;16737;50.932;6.780;2022-12-10T08:29:24;3.20;97.60
9984;DHT22;16737;50.932;6.780;2022-12-10T08:31:51;3.20;97.70
9984;DHT22;16737;50.932;6.780;2022-12-10T08:34:18;3.20;97.60
9984;DHT22;16737;50.932;6.780;2022-12-10T08:36:47;3.30;97.70
9984;DHT22;16737;50.932;6.780;2022-12-10T08:39:14;3.30;97.70
9984;DHT22;16737;50.932;6.780;2022-12-10T08:41:42;3.30;97.70
9984;DHT22;16737;50.932;6.780;2022-12-10T08:44:10;3.30;97.70
9984;DHT22;16737;50.932;6.780;2022-12-10T08:46:37;3.40;97.70
9984;DHT22;16737;50.932;6.780;2022-12-10T08:49:04;3.40;97.70
9984;DHT22;16737;50.932;6.780;2022-12-10T08:51:32;3.40;97.70
9984;DHT22;16737;50.932;6.780;2022-12-10T08:54:00;3.40;97.70
9984;DHT22;16737;50.932;6.780;2022-12-10T08:56:27;3.40;97.60
9984;DHT22;16737;50.932;6.780;2022-12-10T08:58:54;3.40;97.60
9984;DHT22;16737;50.932;6.780;2022-12-10T09:01:21;3.40;97.60
9984;DHT22;16737;50.932;6.780;2022-12-10T09:03:49;3.40;97.60
9984;DHT22;16737;50.932;6.780;2022-12-10T09:06:18;3.40;97.50
9984;DHT22;16737;50.932;6.780;2022-12-10T09:08:46;3.40;97.50
9984;DHT22;16737;50.932;6.780;2022-12-10T09:11:17;3.40;97.80
9984;DHT22;16737;50.932;6.780;2022-12-10T09:13:45;3.40;97.50
9984;DHT22;16737;50.932;6.780;2022-12-10T09:16:13;3.40;97.50
9984;DHT22;16737;50.932;6.780;2022-12-10T09:18:40;3.40;97.50
9984;DHT22;16737;50.932;6.780;2022-12-10T09:21:09;3.30;97.40
9984;DHT22;16737;50.932;6.780;2022-12-10T09:23:41;3.30;97.50
9984;DHT22;16737;50.932;6.780;2022-12-10T09:26:11;3.30;97.60
9984;DHT22;16737;50.932;6.780;2022-12-10T09:28:41;3.30;97.60
9984;DHT22;16737;50.932;6.780;2022-12-10T09:31:10;3.30;97.60
9984;DHT22;16737;50.932;6.780;2022-12-10T09:33:39;3.30;97.60
9984;DHT22;16737;50.932;6.780;2022-12-10T09:36:08;3.30;97.60
9984;DHT22;16737;50.932;6.780;2022-12-10T09:38:38;3.30;97.70
9984;DHT22;16737;50.932;6.780;2022-12-10T09:41:18;3.30;97.70
9984;DHT22;16737;50.932;6.780;2022-12-10T09:44:05;3.30;97.70
9984;DHT22;16737;50.932;6.780;2022-12-10T09:46:45;3.30;97.70
9984;DHT22;16737;50.932;6.780;2022-12-10T09:49:22;3.40;97.80
9984;DHT22;16737;50.932;6.780;2022-12-10T09:52:00;3.40;97.80
9984;DHT22;16737;50.932;6.780;2022-12-10T09:54:33;3.40;97.80
9984;DHT22;16737;50.932;6.780;2022-12-10T09:57:05;3.40;97.80
9984;DHT22;16737;50.932;6.780;2022-12-10T09:59:41;3.50;97.90
9984;DHT22;16737;50.932;6.780;2022-12-10T10:02:21;3.50;97.90
9984;DHT22;16737;50.932;6.780;2022-12-10T10:04:51;3.50;97.90
9984;DHT22;16737;50.932;6.780;2022-12-10T10:07:21;3.60;97.90
9984;DHT22;16737;50.932;6.780;2022-12-10T10:09:55;3.60;97.80
9984;DHT22;16737;50.932;6.780;2022-12-10T10:12:27;3.60;97.80
9984;DHT22;16737;50.932;6.780;2022-12-10T10:14:56;3.60;97.80
9984;DHT22;16737;50.932;6.780;2022-12-10T10:17:27;3.70;97.80
9984;DHT22;16737;50.932;6.780;2022-12-10T10:19:59;3.70;97.70
9984;DHT22;16737;50.932;6.780;2022-12-10T10:22:26;3.70;97.70
9984;DHT22;16737;50.932;6.780;2022-12-10T10:24:55;3.70;97.80
9984;DHT22;16737;50.932;6.780;2022-12-10T10:27:26;3.70;97.80
9984;DHT22;16737;50.932;6.780;2022-12-10T10:30:01;3.70;97.80
9984;DHT22;16737;50.932;6.780;2022-12-10T10:32:45;3.70;97.80
9984;DHT22;16737;50.932;6.780;2022-12-10T10:35:25;3.80;97.80
9984;DHT22;16737;50.932;6.780;2022-12-10T10:37:58;3.80;97.80
9984;DHT22;16737;50.932;6.780;2022-12-10T10:40:30;3.80;97.80
9984;DHT22;16737;50.932;6.780;2022-12-10T10:43:00;3.90;98.10
9984;DHT22;16737;50.932;6.780;2022-12-10T10:45:38;3.90;98.10
9984;DHT22;16737;50.932;6.780;2022-12-10T10:48:11;3.90;97.70
9984;DHT22;16737;50.932;6.780;2022-12-10T10:50:41;3.90;97.60
9984;DHT22;16737;50.932;6.780;2022-12-10T10:53:25;3.90;97.60
9984;DHT22;16737;50.932;6.780;2022-12-10T10:55:58;3.90;97.60
9984;DHT22;16737;50.932;6.780;2022-12-10T10:58:31;3.90;97.60
9984;DHT22;16737;50.932;6.780;2022-12-10T11:01:02;3.90;97.50
9984;DHT22;16737;50.932;6.780;2022-12-10T11:03:33;3.90;97.50
9984;DHT22;16737;50.932;6.780;2022-12-10T11:06:05;3.90;97.40
9984;DHT22;16737;50.932;6.780;2022-12-10T11:08:35;4.00;97.40
9984;DHT22;16737;50.932;6.780;2022-12-10T11:11:06;4.00;97.60
9984;DHT22;16737;50.932;6.780;2022-12-10T11:13:38;4.00;97.40
9984;DHT22;16737;50.932;6.780;2022-12-10T11:16:15;4.00;97.40
9984;DHT22;16737;50.932;6.780;2022-12-10T11:18:54;4.00;97.30
9984;DHT22;16737;50.932;6.780;2022-12-10T11:21:28;4.00;97.30
9984;DHT22;16737;50.932;6.780;2022-12-10T11:23:57;4.00;97.30
9984;DHT22;16737;50.932;6.780;2022-12-10T11:26:37;4.00;97.30
9984;DHT22;16737;50.932;6.780;2022-12-10T11:29:21;4.00;97.20
9984;DHT22;16737;50.932;6.780;2022-12-10T11:32:30;4.00;97.20
9984;DHT22;16737;50.932;6.780;2022-12-10T11:35:12;4.00;97.10
9984;DHT22;16737;50.932;6.780;2022-12-10T11:37:49;4.00;97.10
9984;DHT22;16737;50.932;6.780;2022-12-10T11:40:33;4.00;97.10
9984;DHT22;16737;50.932;6.780;2022-12-10T11:43:19;4.00;97.20
9984;DHT22;16737;50.932;6.780;2022-12-10T11:46:04;4.00;97.10
9984;DHT22;16737;50.932;6.780;2022-12-10T11:48:55;4.00;97.20
9984;DHT22;16737;50.932;6.780;2022-12-10T11:51:37;4.00;97.20
9984;DHT22;16737;50.932;6.780;2022-12-10T11:54:23;4.00;97.20
9984;DHT22;16737;50.932;6.780;2022-12-10T11:57:06;4.00;97.30
9984;DHT22;16737;50.932;6.780;2022-12-10T11:59:42;4.00;97.30
9984;DHT22;16737;50.932;6.780;2022-12-10T12:02:58;4.00;97.30
9984;DHT22;16737;50.932;6.780;2022-12-10T12:05:56;4.10;97.40
9984;DHT22;16737;50.932;6.780;2022-12-10T12:08:40;4.10;97.30
9984;DHT22;16737;50.932;6.780;2022-12-10T12:11:40;4.10;97.40
9984;DHT22;16737;50.932;6.780;2022-12-10T12:14:19;4.20;97.40
9984;DHT22;16737;50.932;6.780;2022-12-10T12:16:56;4.20;97.30
9984;DHT22;16737;50.932;6.780;2022-12-10T12:19:32;4.20;97.30
9984;DHT22;16737;50.932;6.780;2022-12-10T12:22:09;4.20;97.30
9984;DHT22;16737;50.932;6.780;2022-12-10T12:24:41;4.30;97.30
9984;DHT22;16737;50.932;6.780;2022-12-10T12:27:18;4.30;97.40
9984;DHT22;16737;50.932;6.780;2022-12-10T12:30:00;4.30;97.40
9984;DHT22;16737;50.932;6.780;2022-12-10T12:32:38;4.30;97.30
9984;DHT22;16737;50.932;6.780;2022-12-10T12:35:14;4.40;97.30
9984;DHT22;16737;50.932;6.780;2022-12-10T12:37:51;4.40;97.30
9984;DHT22;16737;50.932;6.780;2022-12-10T12:40:27;4.40;97.30
9984;DHT22;16737;50.932;6.780;2022-12-10T12:42:59;4.40;97.20
9984;DHT22;16737;50.932;6.780;2022-12-10T12:45:33;4.40;97.20
9984;DHT22;16737;50.932;6.780;2022-12-10T12:48:19;4.40;97.20
9984;DHT22;16737;50.932;6.780;2022-12-10T12:50:54;4.40;97.20
9984;DHT22;16737;50.932;6.780;2022-12-10T12:53:26;4.40;97.20
9984;DHT22;16737;50.932;6.780;2022-12-10T12:55:59;4.40;97.20
9984;DHT22;16737;50.932;6.780;2022-12-10T12:58:36;4.40;97.20
9984;DHT22;16737;50.932;6.780;2022-12-10T13:01:19;4.40;97.20
9984;DHT22;16737;50.932;6.780;2022-12-10T13:03:54;4.40;97.20
9984;DHT22;16737;50.932;6.780;2022-12-10T13:06:25;4.40;97.20
9984;DHT22;16737;50.932;6.780;2022-12-10T13:09:16;4.50;97.20
9984;DHT22;16737;50.932;6.780;2022-12-10T13:12:26;4.50;97.20
9984;DHT22;16737;50.932;6.780;2022-12-10T13:15:11;4.50;97.20
9984;DHT22;16737;50.932;6.780;2022-12-10T13:18:18;4.50;97.20
9984;DHT22;16737;50.932;6.780;2022-12-10T13:21:25;4.50;97.10
9984;DHT22;16737;50.932;6.780;2022-12-10T13:24:11;4.50;97.10
9984;DHT22;16737;50.932;6.780;2022-12-10T13:27:01;4.50;97.10
9984;DHT22;16737;50.932;6.780;2022-12-10T13:29:43;4.50;97.20
9984;DHT22;16737;50.932;6.780;2022-12-10T13:32:15;4.50;97.20
9984;DHT22;16737;50.932;6.780;2022-12-10T13:34:44;4.50;97.20
9984;DHT22;16737;50.932;6.780;2022-12-10T13:37:29;4.50;97.20
9984;DHT22;16737;50.932;6.780;2022-12-10T13:40:21;4.50;97.20
9984;DHT22;16737;50.932;6.780;2022-12-10T13:42:57;4.60;97.20
9984;DHT22;16737;50.932;6.780;2022-12-10T13:45:43;4.60;97.20
9984;DHT22;16737;50.932;6.780;2022-12-10T13:48:31;4.60;97.20
9984;DHT22;16737;50.932;6.780;2022-12-10T13:51:12;4.60;97.10
9984;DHT22;16737;50.932;6.780;2022-12-10T13:54:01;4.60;97.50
9984;DHT22;16737;50.932;6.780;2022-12-10T13:56:44;4.60;97.10
9984;DHT22;16737;50.932;6.780;2022-12-10T13:59:23;4.60;97.00
9984;DHT22;16737;50.932;6.780;2022-12-10T14:02:11;4.60;97.00
9984;DHT22;16737;50.932;6.780;2022-12-10T14:05:20;4.60;97.30
9984;DHT22;16737;50.932;6.780;2022-12-10T14:07:56;4.50;96.90
9984;DHT22;16737;50.932;6.780;2022-12-10T14:10:30;4.50;96.90
9984;DHT22;16737;50.932;6.780;2022-12-10T14:13:03;4.50;96.90
9984;DHT22;16737;50.932;6.780;2022-12-10T14:15:35;4.50;96.90
9984;DHT22;16737;50.932;6.780;2022-12-10T14:18:09;4.50;97.00
9984;DHT22;16737;50.932;6.780;2022-12-10T14:20:43;4.50;97.10
9984;DHT22;16737;50.932;6.780;2022-12-10T14:23:22;4.50;97.20
9984;DHT22;16737;50.932;6.780;2022-12-10T14:26:06;4.50;97.10
9984;DHT22;16737;50.932;6.780;2022-12-10T14:28:43;4.60;97.10
9984;DHT22;16737;50.932;6.780;2022-12-10T14:31:16;4.60;97.10
9984;DHT22;16737;50.932;6.780;2022-12-10T14:33:46;4.60;97.00
9984;DHT22;16737;50.932;6.780;2022-12-10T14:36:20;4.60;97.00
9984;DHT22;16737;50.932;6.780;2022-12-10T14:38:52;4.60;97.00
9984;DHT22;16737;50.932;6.780;2022-12-10T14:41:22;4.60;96.90
9984;DHT22;16737;50.932;6.780;2022-12-10T14:43:52;4.50;96.90
9984;DHT22;16737;50.932;6.780;2022-12-10T14:46:22;4.50;96.90
9984;DHT22;16737;50.932;6.780;2022-12-10T14:48:52;4.50;96.90
9984;DHT22;16737;50.932;6.780;2022-12-10T14:51:21;4.50;96.90
9984;DHT22;16737;50.932;6.780;2022-12-10T14:53:54;4.50;96.90
9984;DHT22;16737;50.932;6.780;2022-12-10T14:56:25;4.50;96.90
9984;DHT22;16737;50.932;6.780;2022-12-10T14:59:02;4.50;96.90
9984;DHT22;16737;50.932;6.780;2022-12-10T15:01:37;4.50;96.90
9984;DHT22;16737;50.932;6.780;2022-12-10T15:04:12;4.50;96.90
9984;DHT22;16737;50.932;6.780;2022-12-10T15:06:41;4.50;96.90
9984;DHT22;16737;50.932;6.780;2022-12-10T15:09:15;4.50;96.90
9984;DHT22;16737;50.932;6.780;2022-12-10T15:11:44;4.50;96.90
9984;DHT22;16737;50.932;6.780;2022-12-10T15:14:17;4.50;96.90
9984;DHT22;16737;50.932;6.780;2022-12-10T15:16:46;4.50;96.80
9984;DHT22;16737;50.932;6.780;2022-12-10T15:19:20;4.50;96.80
9984;DHT22;16737;50.932;6.780;2022-12-10T15:21:50;4.50;96.80
9984;DHT22;16737;50.932;6.780;2022-12-10T15:24:21;4.50;96.80
9984;DHT22;16737;50.932;6.780;2022-12-10T15:26:53;4.50;96.80
9984;DHT22;16737;50.932;6.780;2022-12-10T15:29:34;4.50;96.80
9984;DHT22;16737;50.932;6.780;2022-12-10T15:32:06;4.50;96.80
9984;DHT22;16737;50.932;6.780;2022-12-10T15:34:42;4.50;96.90
9984;DHT22;16737;50.932;6.780;2022-12-10T15:37:19;4.50;96.90
9984;DHT22;16737;50.932;6.780;2022-12-10T15:39:52;4.50;96.90
9984;DHT22;16737;50.932;6.780;2022-12-10T15:42:39;4.50;96.90
9984;DHT22;16737;50.932;6.780;2022-12-10T15:45:18;4.50;96.80
9984;DHT22;16737;50.932;6.780;2022-12-10T15:47:48;4.50;96.80
9984;DHT22;16737;50.932;6.780;2022-12-10T15:50:16;4.50;96.90
9984;DHT22;16737;50.932;6.780;2022-12-10T15:52:43;4.50;96.90
9984;DHT22;16737;50.932;6.780;2022-12-10T15:55:11;4.60;96.90
9984;DHT22;16737;50.932;6.780;2022-12-10T15:57:40;4.60;96.90
9984;DHT22;16737;50.932;6.780;2022-12-10T16:00:17;4.60;96.80
9984;DHT22;16737;50.932;6.780;2022-12-10T16:02:47;4.50;96.80
9984;DHT22;16737;50.932;6.780;2022-12-10T16:05:19;4.50;96.80
9984;DHT22;16737;50.932;6.780;2022-12-10T16:07:50;4.50;96.70
9984;DHT22;16737;50.932;6.780;2022-12-10T16:10:19;4.50;96.70
9984;DHT22;16737;50.932;6.780;2022-12-10T16:12:57;4.50;96.70
9984;DHT22;16737;50.932;6.780;2022-12-10T16:15:30;4.50;96.70
9984;DHT22;16737;50.932;6.780;2022-12-10T16:18:01;4.40;96.60
9984;DHT22;16737;50.932;6.780;2022-12-10T16:20:30;4.40;96.60
9984;DHT22;16737;50.932;6.780;2022-12-10T16:22:58;4.30;96.60
9984;DHT22;16737;50.932;6.780;2022-12-10T16:25:27;4.30;96.60
9984;DHT22;16737;50.932;6.780;2022-12-10T16:27:56;4.30;96.60
9984;DHT22;16737;50.932;6.780;2022-12-10T16:30:26;4.20;96.60
9984;DHT22;16737;50.932;6.780;2022-12-10T16:32:59;4.20;96.70
9984;DHT22;16737;50.932;6.780;2022-12-10T16:35:27;4.20;96.70
9984;DHT22;16737;50.932;6.780;2022-12-10T16:37:53;4.20;96.70